Airfield :
LOGIN :

Register | Disclaimer

   EN    FR    IT 

 










Legend :    VFR   Marginal VFR   IFR   Intensive IFR   Very Intensive IFR
Visi :
Ceiling :
>= 8 km
>= 3000ft
5 to 8 km
1000 to 3000 ft
1500m to 5 km
500 to 1000 ft
800 to 1500m
200 to 500 ft
< 800m
< 200 ft
Symbols :   Thunderstorms  Fog  Heavy snow  Heavy precipitations  Wind > 20 kt
SIGMETs :     Misc.  Thunderstorms  Icing  Turbulence  Mountain Waves  Volcanic Ashes







- Airport Elevation : 404 ft
- IATA code : WRO


EPWR - Wroclaw

CURRENT METAR :
  • 210700Z 25006KT CAVOK 05/01 Q1024

EXPIRED METARs :
  • 210630Z 25005KT CAVOK 05/01 Q1024
  • 210600Z 26006KT CAVOK 04/01 Q1024
  • 210530Z 26006KT CAVOK 04/00 Q1024
  • 210500Z 25005KT CAVOK 05/01 Q1024
  • 210430Z 25006KT CAVOK 05/01 Q1024

TAF TAF EPWR
Valid from the 21 at 06:00 until the 22 at 06:00 UTC


210530Z 2106/2206 27007KT 9999 BKN030
TEMPO 2109/2118 4000 RA BR BKN014
BECMG 2118/2121 4000 RA BR BKN012
PROB30
TEMPO 2120/2203 27015G25KT BKN009
BECMG 2203/2206 06015G25KT
No reported NOTAMs for that airfield.



MET'MAP, your aeronautical weather chart ! - Copyright ORBIFLY December 2007 - Disclaimer

ORBIFLY MET'MAP TEAM :

Programming & Development : Alexandra Zaïnal
Concept & Development : Baudouin d'Aumeries
Co-Development & Prog : Marc-Olivier Méhu
Technical & hardware support : Manuel Goepfert

Contact : metmap@orbifly.com




SOURCES & CREDITS :

   NOAA